MST,Max TemperatureF,Mean TemperatureF,Min TemperatureF,Max Dew PointF,MeanDew PointF,Min DewpointF,Max Humidity, Mean Humidity, Min Humidity, Max Sea Level PressureIn, Mean Sea Level PressureIn, Min Sea Level PressureIn, Max VisibilityMiles, Mean VisibilityMiles, Min VisibilityMiles, Max Wind SpeedMPH, Mean Wind SpeedMPH, Max Gust SpeedMPH,PrecipitationIn, CloudCover, Events, WindDirDegrees
2013-4-1,73,64,54,30,24,3,41,25,6,29.86,29.80,29.70,10,10,10,17,7,32,0.00,1,,250
2013-4-2,64,54,45,34,30,26,50,37,19,30.03,29.87,29.81,10,10,10,12,3,16,0.00,3,Rain,322
2013-4-3,72,59,46,33,26,18,54,30,7,30.08,30.01,29.95,10,10,10,7,3,,0.00,0,,138
2013-4-4,77,62,48,25,20,14,36,19,4,30.08,29.96,29.83,10,10,10,8,4,,0.00,0,,325
2013-4-5,79,69,59,28,23,16,25,17,4,29.83,29.76,29.68,10,10,10,15,5,26,0.00,1,,250
2013-4-6,79,67,55,28,23,16,33,19,5,29.86,29.78,29.69,10,10,10,14,4,25,0.00,0,,266
2013-4-7,77,64,51,25,17,7,33,16,4,29.79,29.67,29.49,10,10,9,14,5,26,0.00,0,,229
2013-4-8,64,53,42,40,33,20,85,56,14,29.46,29.34,29.19,10,8,2,22,12,37,0.16,6,Rain-Thunderstorm,279
2013-4-9,55,48,42,37,26,19,81,45,18,29.95,29.66,29.42,10,10,4,15,9,25,0.04,7,Rain,295
2013-4-10,55,46,36,24,20,16,57,35,11,30.12,29.99,29.91,10,10,6,12,6,,0.00,1,,24
2013-4-11,66,55,44,37,29,24,55,38,13,29.96,29.82,29.72,10,10,10,8,1,,0.00,2,,60
2013-4-12,70,56,42,29,20,11,46,24,5,29.88,29.79,29.72,10,10,10,10,4,,0.00,0,,349
2013-4-13,77,61,45,24,22,19,39,20,5,29.77,29.59,29.42,10,10,10,16,5,29,0.00,0,,242
2013-4-14,77,67,57,30,24,17,36,20,5,29.67,29.47,29.38,10,10,10,21,8,32,0.00,0,,275
2013-4-15,77,66,55,33,24,10,42,20,4,29.44,29.38,29.32,10,10,10,16,9,31,0.00,0,,216
2013-4-16,64,54,45,28,25,21,49,31,14,29.73,29.53,29.36,10,10,8,20,14,37,0.00,3,,261
2013-4-17,54,46,39,28,20,10,53,35,16,30.11,29.88,29.70,10,10,10,16,9,25,0.00,4,,331
2013-4-18,57,47,37,12,6,2,36,20,4,30.22,30.16,30.09,10,10,10,10,6,,0.00,0,,318
2013-4-19,66,52,37,16,13,10,36,20,5,30.24,30.08,29.89,10,10,7,10,4,,0.00,0,,341
2013-4-20,72,62,53,25,18,14,29,18,6,29.99,29.90,29.84,10,10,10,14,6,22,0.00,1,,306
2013-4-21,79,62,46,24,20,13,41,20,4,30.07,29.93,29.81,10,10,10,15,5,29,0.00,0,,288
2013-4-22,82,68,54,25,18,15,24,14,4,29.84,29.71,29.60,10,10,10,17,5,32,0.00,0,,276
2013-4-23,66,57,48,24,6,-4,27,14,4,30.01,29.92,29.73,10,10,10,14,8,24,0.00,0,,339
2013-4-24,68,56,45,8,1,-5,21,11,4,30.03,29.95,29.90,10,10,10,13,4,20,0.00,0,,56
2013-4-25,73,60,46,23,14,7,25,15,5,29.91,29.86,29.78,10,10,10,16,3,26,0.00,1,,272
2013-4-26,79,66,52,17,10,4,21,12,4,30.07,30.00,29.91,10,10,10,10,4,,0.00,0,,353
2013-4-27,80,66,52,16,10,2,20,12,4,30.13,30.03,29.92,10,10,10,7,2,,0.00,0,,313
2013-4-28,84,68,52,20,16,10,26,13,4,30.10,29.87,29.73,10,10,10,6,2,,0.00,0,,294
2013-4-29,90,74,57,22,18,12,25,12,4,29.78,29.65,29.53,10,10,10,20,4,30,0.00,0,,263
2013-4-30,89,76,64,23,13,6,16,8,4,29.71,29.51,29.45,10,10,10,15,7,30,0.00,0,,243